createdAt,value
2019-04-25T00:01:43.973Z,99.30
2019-04-25T00:04:13.478Z,99.30
2019-04-25T00:06:42.874Z,99.50
2019-04-25T00:09:14.329Z,99.40
2019-04-25T00:11:43.664Z,99.00
2019-04-25T00:14:13.539Z,99.20
2019-04-25T00:16:44.133Z,99.20
2019-04-25T00:19:13.578Z,99.40
2019-04-25T00:22:02.116Z,99.30
2019-04-25T00:24:32.443Z,99.40
2019-04-25T00:27:02.226Z,99.70
2019-04-25T00:29:31.871Z,99.50
2019-04-25T00:32:01.667Z,99.40
2019-04-25T00:34:31.634Z,99.70
2019-04-25T00:37:02.515Z,99.50
2019-04-25T00:39:31.899Z,99.40
2019-04-25T00:42:02.205Z,99.10
2019-04-25T00:44:31.943Z,99.00
2019-04-25T00:47:02.317Z,99.40
2019-04-25T00:49:32.241Z,99.10
2019-04-25T00:52:01.924Z,98.80
2019-04-25T00:54:31.310Z,98.80
2019-04-25T00:57:00.167Z,98.50
2019-04-25T00:59:39.325Z,98.70
2019-04-25T01:02:11.356Z,98.70
2019-04-25T01:04:41.843Z,99.20
2019-04-25T01:07:10.671Z,99.00
2019-04-25T01:09:39.379Z,98.90
2019-04-25T01:12:08.451Z,99.10
2019-04-25T01:14:37.155Z,99.30
2019-04-25T01:17:05.853Z,99.50
2019-04-25T01:19:34.559Z,99.90
2019-04-25T01:22:03.932Z,99.80
2019-04-25T01:24:33.999Z,99.90
2019-04-25T01:27:03.369Z,99.90
2019-04-25T01:29:33.496Z,99.90
2019-04-25T01:32:04.023Z,99.90
2019-04-25T01:34:50.493Z,99.90
2019-04-25T01:37:27.145Z,99.90
2019-04-25T01:40:00.244Z,99.90
2019-04-25T01:42:39.404Z,99.90
2019-04-25T01:45:09.223Z,99.90
2019-04-25T01:47:37.921Z,99.90
2019-04-25T01:50:08.087Z,99.90
2019-04-25T01:52:36.812Z,99.90
2019-04-25T01:55:07.359Z,99.90
2019-04-25T01:57:36.087Z,99.90
2019-04-25T02:00:10.209Z,99.60
2019-04-25T02:02:39.003Z,99.80
2019-04-25T02:05:07.871Z,99.90
2019-04-25T02:07:36.591Z,99.80
2019-04-25T02:10:06.855Z,99.70
2019-04-25T02:12:46.483Z,99.60
2019-04-25T02:15:16.827Z,99.60
2019-04-25T02:17:45.547Z,99.90
2019-04-25T02:20:14.347Z,99.90
2019-04-25T02:22:44.188Z,99.90
2019-04-25T02:25:13.341Z,99.90
2019-04-25T02:27:42.123Z,99.90
2019-04-25T02:30:12.088Z,99.90
2019-04-25T02:32:40.798Z,99.90
2019-04-25T02:35:10.014Z,99.90
2019-04-25T02:37:38.782Z,99.90
2019-04-25T02:40:08.723Z,99.90
2019-04-25T02:42:37.707Z,99.90
2019-04-25T02:45:16.181Z,99.90
2019-04-25T02:47:46.239Z,99.90
2019-04-25T02:50:16.668Z,99.90
2019-04-25T02:52:47.016Z,99.90
2019-04-25T02:55:29.485Z,99.90
2019-04-25T02:57:46.107Z,99.90
2019-04-25T03:00:24.889Z,99.90
2019-04-25T03:02:54.734Z,99.90
2019-04-25T03:05:25.522Z,99.90
2019-04-25T03:07:54.574Z,99.90
2019-04-25T03:10:26.688Z,99.90
2019-04-25T03:12:54.444Z,99.90
2019-04-25T03:15:24.359Z,99.90
2019-04-25T03:17:54.645Z,99.90
2019-04-25T03:20:25.224Z,99.90
2019-04-25T03:22:54.663Z,99.90
2019-04-25T03:25:24.799Z,99.90
2019-04-25T03:27:54.126Z,99.90
2019-04-25T03:30:25.459Z,99.90
2019-04-25T03:32:55.991Z,99.90
2019-04-25T03:35:23.704Z,99.90
2019-04-25T03:37:52.401Z,99.90
2019-04-25T03:40:21.176Z,99.90
2019-04-25T03:42:49.873Z,99.90
2019-04-25T03:45:18.566Z,99.90
2019-04-25T03:47:47.270Z,99.90
2019-04-25T03:50:15.974Z,99.90
2019-04-25T03:52:44.671Z,99.90
2019-04-25T03:55:14.406Z,99.90
2019-04-25T03:57:44.347Z,99.90
2019-04-25T04:00:14.533Z,99.90
2019-04-25T04:02:44.242Z,99.90
2019-04-25T04:05:13.943Z,99.90
2019-04-25T04:07:43.635Z,99.90
2019-04-25T04:10:14.264Z,99.90
2019-04-25T04:12:44.264Z,99.90
2019-04-25T04:15:15.570Z,99.90
2019-04-25T04:17:45.431Z,99.90
2019-04-25T04:20:16.032Z,99.90
2019-04-25T04:23:03.202Z,99.90
2019-04-25T04:25:33.626Z,99.90
2019-04-25T04:28:03.703Z,99.90
2019-04-25T04:30:33.942Z,99.90
2019-04-25T04:33:03.619Z,99.90
2019-04-25T04:35:33.573Z,99.90
2019-04-25T04:38:02.315Z,99.90
2019-04-25T04:40:31.017Z,99.90
2019-04-25T04:42:59.715Z,99.90
2019-04-25T04:45:28.423Z,99.90
2019-04-25T04:47:57.055Z,99.90
2019-04-25T04:50:25.768Z,99.90
2019-04-25T04:52:54.465Z,99.90
2019-04-25T04:55:23.293Z,99.90
2019-04-25T04:57:52.103Z,99.90
2019-04-25T05:00:21.739Z,99.90
2019-04-25T05:02:53.379Z,99.90
2019-04-25T05:05:24.776Z,99.90
2019-04-25T05:08:04.441Z,99.90
2019-04-25T05:10:33.323Z,99.90
2019-04-25T05:13:02.139Z,99.90
2019-04-25T05:15:30.847Z,99.90
2019-04-25T05:17:59.619Z,99.90
2019-04-25T05:20:47.631Z,99.90
2019-04-25T05:23:17.138Z,99.90
2019-04-25T05:25:45.887Z,99.90
2019-04-25T05:28:16.162Z,99.90
2019-04-25T05:31:04.583Z,99.90
2019-04-25T05:33:33.800Z,99.90
2019-04-25T05:36:03.773Z,99.90
2019-04-25T05:38:33.349Z,99.90
2019-04-25T05:41:04.058Z,99.90
2019-04-25T05:43:33.406Z,99.90
2019-04-25T05:46:03.369Z,99.50
2019-04-25T05:48:33.920Z,99.50
2019-04-25T05:51:03.925Z,97.30
2019-04-25T05:53:33.393Z,95.20
2019-04-25T05:56:02.119Z,93.20
2019-04-25T05:58:30.831Z,92.30
2019-04-25T06:00:59.468Z,92.40
2019-04-25T06:03:28.171Z,90.00
2019-04-25T06:05:56.879Z,82.30
2019-04-25T06:08:28.044Z,84.20
2019-04-25T06:11:14.755Z,88.60
2019-04-25T06:13:45.095Z,94.30
2019-04-25T06:16:22.088Z,96.50
2019-04-25T06:19:13.970Z,97.40
2019-04-25T06:21:38.669Z,98.50
2019-04-25T06:24:18.975Z,99.10
2019-04-25T06:26:49.504Z,98.10
2019-04-25T06:29:18.211Z,98.60
2019-04-25T06:31:47.023Z,98.80
2019-04-25T06:34:15.735Z,98.80
2019-04-25T06:36:44.546Z,99.00
2019-04-25T06:39:14.175Z,98.20
2019-04-25T06:41:44.179Z,98.30
2019-04-25T06:44:14.613Z,97.20
2019-04-25T06:46:50.914Z,97.20
2019-04-25T06:49:39.019Z,97.40
2019-04-25T06:52:07.727Z,96.50
2019-04-25T06:54:36.427Z,97.40
2019-04-25T06:57:05.136Z,97.60
2019-04-25T06:59:34.505Z,96.80
2019-04-25T07:02:04.225Z,97.10
2019-04-25T07:04:33.942Z,96.40
2019-04-25T07:07:10.522Z,96.90
2019-04-25T07:09:35.021Z,98.20
2019-04-25T07:12:04.726Z,97.10
2019-04-25T07:14:34.120Z,96.80
2019-04-25T07:17:04.376Z,96.70
2019-04-25T07:19:34.350Z,96.30
2019-04-25T07:22:03.923Z,96.80
2019-04-25T07:24:35.181Z,94.90
2019-04-25T07:27:21.451Z,94.80
2019-04-25T07:29:54.623Z,94.30
2019-04-25T07:32:29.497Z,95.50
2019-04-25T07:34:55.348Z,96.30
2019-04-25T07:37:24.264Z,95.10
2019-04-25T07:39:54.205Z,93.90
2019-04-25T07:42:23.932Z,93.90
2019-04-25T07:44:54.920Z,92.60
2019-04-25T07:47:24.216Z,85.50
2019-04-25T07:49:54.223Z,89.30
2019-04-25T07:52:23.477Z,71.10
2019-04-25T07:54:53.529Z,64.00
2019-04-25T07:57:23.746Z,54.90
2019-04-25T08:00:04.899Z,50.00
2019-04-25T08:02:34.763Z,44.80
2019-04-25T08:05:05.779Z,43.20
2019-04-25T08:07:35.249Z,43.60
2019-04-25T08:10:08.008Z,39.20
2019-04-25T08:12:37.277Z,42.00
2019-04-25T08:15:13.866Z,39.70
2019-04-25T08:17:47.095Z,38.30
2019-04-25T08:20:16.805Z,37.10
2019-04-25T08:22:55.758Z,37.70
2019-04-25T08:25:16.164Z,37.40
2019-04-25T08:27:45.100Z,40.60
2019-04-25T08:30:14.116Z,42.00
2019-04-25T08:32:44.058Z,41.60
2019-04-25T08:35:15.645Z,43.80
2019-04-25T08:37:44.134Z,44.10
2019-04-25T08:40:13.749Z,43.70
2019-04-25T08:42:44.062Z,40.00
2019-04-25T08:45:13.462Z,39.60
2019-04-25T08:47:43.810Z,39.70
2019-04-25T08:50:26.762Z,39.20
2019-04-25T08:52:45.735Z,37.90
2019-04-25T08:55:16.292Z,39.10
2019-04-25T08:58:04.607Z,40.60
2019-04-25T09:00:38.354Z,40.40
2019-04-25T09:03:08.659Z,41.20
2019-04-25T09:05:39.092Z,40.10
2019-04-25T09:08:08.014Z,38.80
2019-04-25T09:10:38.226Z,38.50
2019-04-25T09:13:07.063Z,42.40
2019-04-25T09:15:36.740Z,43.30
2019-04-25T09:18:06.114Z,43.00
2019-04-25T09:20:38.141Z,42.30
2019-04-25T09:23:05.447Z,44.00
2019-04-25T09:25:35.447Z,44.10
2019-04-25T09:28:04.751Z,46.60
2019-04-25T09:30:34.952Z,43.00
2019-04-25T09:33:04.698Z,42.40
2019-04-25T09:35:33.646Z,40.70
2019-04-25T09:38:03.371Z,41.80
2019-04-25T09:40:34.068Z,40.30
2019-04-25T09:43:03.619Z,36.20
2019-04-25T09:45:34.047Z,37.50
2019-04-25T09:48:04.700Z,36.90
2019-04-25T09:50:38.758Z,37.70
2019-04-25T09:53:20.795Z,38.40
2019-04-25T09:55:54.239Z,40.10
2019-04-25T09:58:41.924Z,40.10
2019-04-25T10:01:14.131Z,40.50
2019-04-25T10:03:44.784Z,42.40
2019-04-25T10:06:17.599Z,42.00
2019-04-25T10:08:46.379Z,43.50
2019-04-25T10:11:16.471Z,43.10
2019-04-25T10:13:48.121Z,43.60
2019-04-25T10:16:17.011Z,43.10
2019-04-25T10:18:45.934Z,43.50
2019-04-25T10:21:15.056Z,42.10
2019-04-25T10:23:45.356Z,42.00
2019-04-25T10:26:14.375Z,41.60
2019-04-25T10:28:44.070Z,42.70
2019-04-25T10:31:13.770Z,43.50
2019-04-25T10:33:45.177Z,45.00
2019-04-25T10:36:14.473Z,42.90
2019-04-25T10:38:46.996Z,41.50
2019-04-25T10:41:15.239Z,39.30
2019-04-25T10:43:44.085Z,39.30
2019-04-25T10:46:14.094Z,44.80
2019-04-25T10:48:43.767Z,41.50
2019-04-25T10:51:13.957Z,40.70
2019-04-25T10:53:45.454Z,39.80
2019-04-25T10:56:14.189Z,39.10
2019-04-25T10:58:44.457Z,40.80
2019-04-25T11:01:15.157Z,39.40
2019-04-25T11:03:55.626Z,38.70
2019-04-25T11:06:26.073Z,38.30
2019-04-25T11:08:56.512Z,39.30
2019-04-25T11:11:25.692Z,40.60
2019-04-25T11:13:56.660Z,42.00
2019-04-25T11:16:25.537Z,40.90
2019-04-25T11:18:54.805Z,41.50
2019-04-25T11:21:24.248Z,43.50
2019-04-25T11:23:55.165Z,42.00
2019-04-25T11:26:23.588Z,41.20
2019-04-25T11:28:52.276Z,41.20
2019-04-25T11:31:23.553Z,39.40
2019-04-25T11:33:54.391Z,38.80
2019-04-25T11:36:24.806Z,41.60
2019-04-25T11:39:11.343Z,39.90
2019-04-25T11:41:40.120Z,38.40
2019-04-25T11:44:08.818Z,38.40
2019-04-25T11:46:39.331Z,38.80
2019-04-25T11:49:08.239Z,39.10
2019-04-25T11:51:36.935Z,40.50
2019-04-25T11:54:05.641Z,40.60
2019-04-25T11:56:34.405Z,43.50
2019-04-25T11:59:04.498Z,42.50
2019-04-25T12:01:33.648Z,43.70
2019-04-25T12:04:04.012Z,44.10
2019-04-25T12:06:33.539Z,42.10
2019-04-25T12:09:03.991Z,42.00
2019-04-25T12:11:34.142Z,41.10
2019-04-25T12:14:04.299Z,42.00
2019-04-25T12:16:33.215Z,42.40
2019-04-25T12:19:01.971Z,43.20
2019-04-25T12:21:30.740Z,43.00
2019-04-25T12:24:01.722Z,44.50
2019-04-25T12:26:29.788Z,46.00
2019-04-25T12:28:58.491Z,44.80
2019-04-25T12:31:27.187Z,45.40
2019-04-25T12:33:57.442Z,45.50
2019-04-25T12:36:26.299Z,47.40
2019-04-25T12:38:55.569Z,46.50
2019-04-25T12:41:24.343Z,46.40
2019-04-25T12:43:55.453Z,46.10
2019-04-25T12:46:26.092Z,44.10
2019-04-25T12:48:54.787Z,44.60
2019-04-25T12:51:23.487Z,45.00
2019-04-25T12:53:53.950Z,44.20
2019-04-25T12:56:24.626Z,44.30
2019-04-25T12:58:53.808Z,46.00
2019-04-25T13:01:24.846Z,44.80
2019-04-25T13:03:54.326Z,44.00
2019-04-25T13:06:24.037Z,44.30
2019-04-25T13:08:54.264Z,45.40
2019-04-25T13:11:23.963Z,43.60
2019-04-25T13:13:52.862Z,43.60
2019-04-25T13:16:21.582Z,44.40
2019-04-25T13:18:50.473Z,44.80
2019-04-25T13:21:19.255Z,46.40
2019-04-25T13:23:47.958Z,47.40
2019-04-25T13:26:18.299Z,48.50
2019-04-25T13:29:05.215Z,46.80
2019-04-25T13:31:41.311Z,47.70
2019-04-25T13:34:14.619Z,46.50
2019-04-25T13:36:44.296Z,46.00
2019-04-25T13:39:15.884Z,46.50
2019-04-25T13:41:44.979Z,47.20
2019-04-25T13:44:14.207Z,45.90
2019-04-25T13:46:43.307Z,45.60
2019-04-25T13:49:14.017Z,45.10
2019-04-25T13:51:42.788Z,44.90
2019-04-25T13:54:13.080Z,46.40
2019-04-25T13:56:43.357Z,46.70
2019-04-25T13:59:12.676Z,46.80
2019-04-25T14:01:41.452Z,45.50
2019-04-25T14:04:10.519Z,46.20
2019-04-25T14:06:39.211Z,48.20
2019-04-25T14:09:09.555Z,47.10
2019-04-25T14:11:38.259Z,48.00
2019-04-25T14:14:07.130Z,48.90
2019-04-25T14:16:40.159Z,49.90
2019-04-25T14:19:26.761Z,51.40
2019-04-25T14:21:57.095Z,52.50
2019-04-25T14:24:29.521Z,53.10
2019-04-25T14:26:56.148Z,54.10
2019-04-25T14:29:24.842Z,53.60
2019-04-25T14:31:53.610Z,53.90
2019-04-25T14:34:23.492Z,54.70
2019-04-25T14:36:54.189Z,56.10
2019-04-25T14:39:23.707Z,56.70
2019-04-25T14:41:52.500Z,56.70
2019-04-25T14:44:22.193Z,56.50
2019-04-25T14:46:51.099Z,56.30
2019-04-25T14:49:19.795Z,57.60
2019-04-25T14:51:48.491Z,58.10
2019-04-25T14:54:22.808Z,56.90
2019-04-25T14:57:02.237Z,57.70
2019-04-25T14:59:31.543Z,58.70
2019-04-25T15:02:00.392Z,58.40
2019-04-25T15:04:30.079Z,57.80
2019-04-25T15:06:58.895Z,58.00
2019-04-25T15:09:28.771Z,58.40
2019-04-25T15:11:57.594Z,58.70
2019-04-25T15:14:26.927Z,61.40
2019-04-25T15:16:55.715Z,61.30
2019-04-25T15:19:25.370Z,61.40
2019-04-25T15:21:54.156Z,60.00
2019-04-25T15:24:23.840Z,62.40
2019-04-25T15:26:52.656Z,61.70
2019-04-25T15:29:21.359Z,59.60
2019-04-25T15:31:55.711Z,60.10
2019-04-25T15:34:21.851Z,60.30
2019-04-25T15:36:52.307Z,58.20
2019-04-25T15:39:31.877Z,60.40
2019-04-25T15:42:07.985Z,59.20
2019-04-25T15:44:41.055Z,61.20
2019-04-25T15:47:11.395Z,62.10
2019-04-25T15:49:40.742Z,63.90
2019-04-25T15:52:09.566Z,63.70
2019-04-25T15:54:38.275Z,64.10
2019-04-25T15:57:07.999Z,65.80
2019-04-25T15:59:36.710Z,63.80
2019-04-25T16:02:08.267Z,66.80
2019-04-25T16:04:37.252Z,66.40
2019-04-25T16:07:06.228Z,69.00
2019-04-25T16:09:35.164Z,67.60
2019-04-25T16:12:04.162Z,67.60
2019-04-25T16:14:33.419Z,68.60
2019-04-25T16:17:02.166Z,69.40
2019-04-25T16:19:31.573Z,67.90
2019-04-25T16:22:00.236Z,69.20
2019-04-25T16:24:29.073Z,70.50
2019-04-25T16:26:58.972Z,69.10
2019-04-25T16:29:27.786Z,68.50
2019-04-25T16:31:58.103Z,69.00
2019-04-25T16:34:26.807Z,70.80
2019-04-25T16:36:55.507Z,70.10
2019-04-25T16:39:25.882Z,72.30
2019-04-25T16:41:54.575Z,72.80
2019-04-25T16:44:23.359Z,72.80
2019-04-25T16:46:52.236Z,74.00
2019-04-25T16:49:20.938Z,74.80
2019-04-25T16:51:49.667Z,76.70
2019-04-25T16:54:18.439Z,76.80
2019-04-25T16:56:47.359Z,77.80
2019-04-25T16:59:16.051Z,79.60
2019-04-25T17:01:44.819Z,79.90
2019-04-25T17:04:13.527Z,83.90
2019-04-25T17:06:42.228Z,83.40
2019-04-25T17:09:10.933Z,84.80
2019-04-25T17:11:39.639Z,86.00
2019-04-25T17:14:16.043Z,86.80
2019-04-25T17:16:52.180Z,86.60
2019-04-25T17:19:22.519Z,86.90
2019-04-25T17:21:51.219Z,86.70
2019-04-25T17:24:19.923Z,89.50
2019-04-25T17:26:48.643Z,90.00
2019-04-25T17:29:18.972Z,90.00
2019-04-25T17:31:49.315Z,91.40
2019-04-25T17:34:25.623Z,90.70
2019-04-25T17:36:58.690Z,90.80
2019-04-25T17:42:22.736Z,91.10
2019-04-25T17:44:51.431Z,91.60
2019-04-25T17:47:20.134Z,91.50
2019-04-25T17:49:48.831Z,91.70
2019-04-25T17:52:17.599Z,92.40
2019-04-25T17:54:47.136Z,92.50
2019-04-25T17:57:15.895Z,93.10
2019-04-25T17:59:44.606Z,92.90
2019-04-25T18:02:13.371Z,93.20
2019-04-25T18:04:42.545Z,93.50
2019-04-25T18:07:11.351Z,93.80
2019-04-25T18:09:40.855Z,94.00
2019-04-25T18:12:09.555Z,94.20
2019-04-25T18:14:38.477Z,94.50
2019-04-25T18:17:07.503Z,94.40
2019-04-25T18:19:38.554Z,95.00
2019-04-25T18:22:11.998Z,95.10
2019-04-25T18:24:57.440Z,95.70
2019-04-25T18:27:27.709Z,96.00
2019-04-25T18:29:56.400Z,96.40
2019-04-25T18:32:26.671Z,96.30
2019-04-25T18:34:57.003Z,97.00
2019-04-25T18:37:39.275Z,96.90
2019-04-25T18:40:26.179Z,97.00
2019-04-25T18:43:14.657Z,97.30
2019-04-25T18:45:44.991Z,97.30
2019-04-25T18:48:14.955Z,97.70
2019-04-25T18:50:44.458Z,98.10
2019-04-25T18:53:17.827Z,98.20
2019-04-25T18:55:48.167Z,98.70
2019-04-25T18:58:21.504Z,99.00
2019-04-25T19:00:51.839Z,99.20
2019-04-25T19:03:31.115Z,99.30
2019-04-25T19:06:01.453Z,99.70
2019-04-25T19:08:30.158Z,99.70
2019-04-25T19:10:58.897Z,99.90
2019-04-25T19:13:27.632Z,99.90
2019-04-25T19:15:56.772Z,99.90
2019-04-25T19:18:25.459Z,99.90
2019-04-25T19:20:54.636Z,99.90
2019-04-25T19:23:23.359Z,99.90
2019-04-25T19:25:52.223Z,99.90
2019-04-25T19:28:20.938Z,99.90
2019-04-25T19:30:49.842Z,99.90
2019-04-25T19:33:19.100Z,99.90
2019-04-25T19:35:47.831Z,99.90
2019-04-25T19:38:16.613Z,99.90
2019-04-25T19:40:48.048Z,99.90
2019-04-25T19:43:21.662Z,99.90
2019-04-25T19:45:51.173Z,99.90
2019-04-25T19:48:19.966Z,99.90
2019-04-25T19:50:48.739Z,99.90
2019-04-25T19:53:17.671Z,99.90
2019-04-25T19:55:46.368Z,99.90
2019-04-25T19:58:15.139Z,99.90
2019-04-25T20:00:44.253Z,99.90
2019-04-25T20:03:26.679Z,99.90
2019-04-25T20:05:57.023Z,99.90
2019-04-25T20:08:36.241Z,99.90
2019-04-25T20:11:12.473Z,99.90
2019-04-25T20:13:41.231Z,99.90
2019-04-25T20:16:10.035Z,99.90
2019-04-25T20:18:38.732Z,99.90
2019-04-25T20:21:07.439Z,99.90
2019-04-25T20:23:36.135Z,99.90
2019-04-25T20:26:04.831Z,99.90
2019-04-25T20:28:33.532Z,99.90
2019-04-25T20:31:02.227Z,99.90
2019-04-25T20:33:30.855Z,99.90
2019-04-25T20:35:59.564Z,99.90
2019-04-25T20:38:28.260Z,99.90
2019-04-25T20:40:56.998Z,99.90
2019-04-25T20:43:25.738Z,99.90
2019-04-25T20:45:54.615Z,99.90
2019-04-25T20:48:23.356Z,99.90
2019-04-25T20:50:52.451Z,99.90
2019-04-25T20:53:21.254Z,99.90
2019-04-25T20:55:50.771Z,99.90
2019-04-25T20:58:19.551Z,99.90
2019-04-25T21:00:52.628Z,99.90
2019-04-25T21:03:21.324Z,99.90
2019-04-25T21:05:51.672Z,99.90
2019-04-25T21:08:20.367Z,99.90
2019-04-25T21:10:49.643Z,99.90
2019-04-25T21:13:20.917Z,99.90
2019-04-25T21:15:52.093Z,99.90
2019-04-25T21:18:28.771Z,99.90
2019-04-25T21:20:59.145Z,99.90
2019-04-25T21:23:27.967Z,99.90
2019-04-25T21:25:56.966Z,99.90
2019-04-25T21:28:25.764Z,99.90
2019-04-25T21:30:54.798Z,99.90
2019-04-25T21:33:23.567Z,99.90
2019-04-25T21:35:53.298Z,99.90
2019-04-25T21:38:22.367Z,99.90
2019-04-25T21:40:55.741Z,99.90
2019-04-25T21:43:29.011Z,99.90
2019-04-25T21:45:58.055Z,99.90
2019-04-25T21:48:27.007Z,99.90
2019-04-25T21:50:56.910Z,99.90
2019-04-25T21:53:25.609Z,99.90
2019-04-25T21:55:55.274Z,99.90
2019-04-25T21:58:24.407Z,99.90
2019-04-25T22:00:56.528Z,99.90
2019-04-25T22:03:26.524Z,99.90
2019-04-25T22:05:56.749Z,99.90
2019-04-25T22:08:25.667Z,99.90
2019-04-25T22:10:55.804Z,99.90
2019-04-25T22:13:25.019Z,99.90
2019-04-25T22:15:54.019Z,99.90
2019-04-25T22:18:23.995Z,99.90
2019-04-25T22:20:52.691Z,99.90
2019-04-25T22:23:21.384Z,99.90
2019-04-25T22:25:50.387Z,99.90
2019-04-25T22:28:19.279Z,99.90
2019-04-25T22:30:50.027Z,99.90
2019-04-25T22:33:20.363Z,99.90
2019-04-25T22:35:50.721Z,99.90
2019-04-25T22:38:19.809Z,99.90
2019-04-25T22:40:48.481Z,99.90
2019-04-25T22:43:17.657Z,99.90
2019-04-25T22:45:46.723Z,99.90
2019-04-25T22:48:17.068Z,99.90
2019-04-25T22:50:45.960Z,99.90
2019-04-25T22:53:22.585Z,99.90
2019-04-25T22:55:45.087Z,99.90
2019-04-25T22:58:13.797Z,99.90
2019-04-25T23:00:42.564Z,99.90
2019-04-25T23:03:15.972Z,99.90
2019-04-25T23:05:46.307Z,99.90
2019-04-25T23:08:15.384Z,99.90
2019-04-25T23:10:44.079Z,99.90
2019-04-25T23:13:13.364Z,99.90
2019-04-25T23:15:42.031Z,99.90
2019-04-25T23:18:11.391Z,99.90
2019-04-25T23:20:40.203Z,99.90
2019-04-25T23:23:09.689Z,99.90
2019-04-25T23:25:55.043Z,99.90
2019-04-25T23:28:25.589Z,99.90
2019-04-25T23:30:58.787Z,99.90
2019-04-25T23:33:27.488Z,99.90
2019-04-25T23:35:56.391Z,99.90
2019-04-25T23:38:25.095Z,99.90
2019-04-25T23:40:53.790Z,99.90
2019-04-25T23:43:22.699Z,99.90
2019-04-25T23:45:51.406Z,99.90
2019-04-25T23:48:20.399Z,99.90
2019-04-25T23:50:49.100Z,99.90
2019-04-25T23:53:17.803Z,99.90
2019-04-25T23:55:46.715Z,99.90
2019-04-25T23:58:15.620Z,99.90
